Time;durP1;ratioP1;P1;durP2;ratioP2;P2;SDS_P1;SDS_P2;PMS_P1;PMS_P2;Temp;Humidity;BMP_temperature;BMP_pressure;BME280_temperature;BME280_humidity;BME280_pressure;Samples;Min_cycle;Max_cycle;Signal;HPM_P1;HPM_P2
2021/09/21 00:02:18;;;;;;;7.20;6.50;;;13.50;64.10;;;;;;5018384;28;20265;-79
2021/09/21 00:04:45;;;;;;;7.50;6.80;;;13.50;63.20;;;;;;5018298;28;20236;-79
2021/09/21 00:07:12;;;;;;;7.97;6.85;;;13.60;61.90;;;;;;5018413;28;20234;-79
2021/09/21 00:09:38;;;;;;;7.55;6.80;;;13.50;61.80;;;;;;5018332;28;20239;-79
2021/09/21 00:12:07;;;;;;;7.10;6.50;;;13.50;61.80;;;;;;5019234;28;20275;-78
2021/09/21 00:14:34;;;;;;;7.10;6.40;;;13.50;61.80;;;;;;5018882;28;20321;-77
2021/09/21 00:17:02;;;;;;;6.55;5.95;;;13.40;61.80;;;;;;5021445;28;20254;-77
2021/09/21 00:19:32;;;;;;;10.32;6.88;;;13.50;61.00;;;;;;5039198;28;20207;-78
2021/09/21 00:21:59;;;;;;;7.43;6.72;;;13.40;60.30;;;;;;5038096;28;20186;-78
2021/09/21 00:24:26;;;;;;;7.28;6.57;;;13.40;60.70;;;;;;5038573;28;20277;-77
2021/09/21 00:26:53;;;;;;;6.97;6.35;;;13.40;60.00;;;;;;5038745;28;20211;-76
2021/09/21 00:29:21;;;;;;;6.50;5.80;;;13.40;59.70;;;;;;5039290;28;20192;-78
2021/09/21 00:31:55;;;;;;;7.35;6.75;;;13.40;59.80;;;;;;5021160;28;20567;-78
2021/09/21 00:34:26;;;;;;;8.75;7.25;;;13.40;60.30;;;;;;5020651;28;20233;-77
2021/09/21 00:36:53;;;;;;;7.00;6.35;;;13.40;59.40;;;;;;5020270;28;20227;-77
2021/09/21 00:39:20;;;;;;;7.65;6.95;;;13.30;59.70;;;;;;5019563;28;20199;-78
2021/09/21 00:41:47;;;;;;;9.13;6.68;;;13.30;59.60;;;;;;5025665;28;20239;-78
2021/09/21 00:44:21;;;;;;;7.38;6.70;;;13.20;60.40;;;;;;5025500;28;20950;-79
2021/09/21 00:46:49;;;;;;;10.55;6.90;;;13.20;60.10;;;;;;5037889;28;20196;-78
2021/09/21 00:49:16;;;;;;;7.75;7.05;;;13.20;60.30;;;;;;5027042;28;20218;-78
2021/09/21 00:51:43;;;;;;;8.05;6.63;;;13.20;60.60;;;;;;5029009;28;20212;-80
2021/09/21 00:54:10;;;;;;;8.20;7.40;;;13.20;61.10;;;;;;5026995;28;20302;-79
2021/09/21 00:56:38;;;;;;;7.28;6.55;;;13.20;60.50;;;;;;5029430;28;20204;-80
2021/09/21 00:59:05;;;;;;;7.72;7.03;;;13.20;60.50;;;;;;5030985;28;20259;-79
2021/09/21 01:01:33;;;;;;;8.20;7.40;;;13.20;61.20;;;;;;5018783;28;20302;-78
2021/09/21 01:04:01;;;;;;;7.15;6.45;;;13.20;61.60;;;;;;5016895;28;20253;-78
2021/09/21 01:06:28;;;;;;;7.43;6.68;;;13.10;61.50;;;;;;5017201;28;20248;-79
2021/09/21 01:08:54;;;;;;;8.25;6.68;;;13.00;62.20;;;;;;5017836;28;20239;-78
2021/09/21 01:11:21;;;;;;;7.63;6.93;;;12.90;63.20;;;;;;5018676;28;20210;-78
2021/09/21 01:13:48;;;;;;;8.43;7.63;;;12.80;63.90;;;;;;5018282;28;20251;-78
2021/09/21 01:16:15;;;;;;;8.05;7.35;;;12.80;64.80;;;;;;5018354;28;20298;-78
2021/09/21 01:18:44;;;;;;;8.43;7.63;;;12.70;65.00;;;;;;5018200;28;20211;-79
2021/09/21 01:21:13;;;;;;;8.23;7.43;;;12.70;64.70;;;;;;5017933;28;20294;-79
2021/09/21 01:23:50;;;;;;;9.13;8.25;;;12.80;63.80;;;;;;5017536;28;20735;-78
2021/09/21 01:26:17;;;;;;;9.10;7.18;;;12.90;63.50;;;;;;5017727;28;20286;-79
2021/09/21 01:28:45;;;;;;;7.95;7.15;;;12.90;62.80;;;;;;5017281;28;20243;-78
2021/09/21 01:31:12;;;;;;;8.80;7.90;;;12.80;63.10;;;;;;5017094;28;20293;-78
2021/09/21 01:33:39;;;;;;;8.00;7.30;;;12.80;62.20;;;;;;5018005;28;20227;-78
2021/09/21 01:36:07;;;;;;;8.10;7.38;;;12.80;62.50;;;;;;5017764;28;20230;-78
2021/09/21 01:38:34;;;;;;;7.70;7.00;;;12.70;63.30;;;;;;5018079;28;20242;-78
2021/09/21 01:41:02;;;;;;;8.52;7.60;;;12.70;63.20;;;;;;5018259;28;20218;-78
2021/09/21 01:43:29;;;;;;;7.93;7.13;;;12.70;63.40;;;;;;5027823;28;20296;-78
2021/09/21 01:45:56;;;;;;;8.68;7.72;;;12.80;62.70;;;;;;5025690;28;20239;-79
2021/09/21 01:48:22;;;;;;;8.15;7.35;;;12.70;63.00;;;;;;5023411;28;20231;-78
2021/09/21 01:50:53;;;;;;;7.97;7.28;;;12.80;62.90;;;;;;5024616;28;20246;-79
2021/09/21 01:53:33;;;;;;;12.25;7.07;;;12.80;62.50;;;;;;5024186;28;20238;-78
2021/09/21 01:58:50;;;;;;;8.35;7.43;;;12.60;63.80;;;;;;5021322;28;20250;-79
2021/09/21 02:01:19;;;;;;;10.85;7.38;;;12.50;64.80;;;;;;5025887;28;20231;-77
2021/09/21 02:03:46;;;;;;;8.13;7.32;;;12.40;65.30;;;;;;5023551;28;20284;-78
2021/09/21 02:06:13;;;;;;;9.95;8.50;;;12.30;65.90;;;;;;5026549;28;20217;-78
2021/09/21 02:08:40;;;;;;;9.45;7.53;;;12.30;67.10;;;;;;5016289;28;20478;-78
2021/09/21 02:11:08;;;;;;;8.13;7.43;;;12.20;66.30;;;;;;5015152;28;20222;-78
2021/09/21 02:13:35;;;;;;;9.25;7.18;;;12.20;67.30;;;;;;5015151;28;20334;-79
2021/09/21 02:16:04;;;;;;;9.07;7.85;;;12.10;67.00;;;;;;5018293;28;20309;-78
2021/09/21 02:18:31;;;;;;;9.38;8.02;;;12.20;66.40;;;;;;5033252;28;20203;-79
2021/09/21 02:20:58;;;;;;;9.20;7.90;;;12.20;65.30;;;;;;5022929;28;20208;-78
2021/09/21 02:23:26;;;;;;;11.35;8.18;;;12.20;64.80;;;;;;5030164;28;20227;-76
2021/09/21 02:25:53;;;;;;;9.18;8.35;;;12.10;65.00;;;;;;5036430;28;20253;-76
2021/09/21 02:28:21;;;;;;;8.60;7.70;;;12.10;65.10;;;;;;5023427;28;20656;-77
2021/09/21 02:30:48;;;;;;;7.88;7.18;;;12.00;66.00;;;;;;5015640;28;20645;-76
2021/09/21 02:33:15;;;;;;;10.05;7.38;;;12.00;66.90;;;;;;5014633;28;20261;-79
2021/09/21 02:35:42;;;;;;;9.57;8.55;;;11.90;67.90;;;;;;5014815;28;20306;-76
2021/09/21 02:38:09;;;;;;;8.95;7.57;;;11.90;68.20;;;;;;5014562;28;20298;-76
2021/09/21 02:40:36;;;;;;;8.60;7.63;;;11.80;69.10;;;;;;5014608;28;20242;-76
2021/09/21 02:43:03;;;;;;;9.00;8.10;;;11.90;70.00;;;;;;5023311;28;20295;-77
2021/09/21 02:45:31;;;;;;;11.88;8.32;;;11.90;70.90;;;;;;5029703;28;20299;-76
2021/09/21 02:47:58;;;;;;;8.95;8.05;;;11.90;71.70;;;;;;5022383;28;20298;-77
2021/09/21 02:50:25;;;;;;;9.00;8.10;;;11.90;71.30;;;;;;5014179;28;20252;-76
2021/09/21 02:52:52;;;;;;;9.82;7.72;;;11.90;70.00;;;;;;5015731;28;20203;-77
2021/09/21 02:55:19;;;;;;;9.95;8.90;;;12.00;69.40;;;;;;5015559;28;20293;-78
2021/09/21 02:57:46;;;;;;;10.98;8.35;;;11.90;70.00;;;;;;5030660;28;20206;-77
2021/09/21 03:00:17;;;;;;;9.10;8.20;;;11.90;69.80;;;;;;5034168;28;20210;-75
2021/09/21 03:02:46;;;;;;;9.52;8.52;;;11.90;71.00;;;;;;5035426;28;20215;-76
2021/09/21 03:05:16;;;;;;;9.77;8.77;;;11.80;70.90;;;;;;5030257;28;20241;-77
2021/09/21 03:07:45;;;;;;;9.82;8.82;;;11.80;70.70;;;;;;5024372;28;20224;-77
2021/09/21 03:10:23;;;;;;;9.57;8.27;;;11.90;70.10;;;;;;5027495;28;20264;-77
2021/09/21 03:18:22;;;;;;;9.40;8.35;;;12.00;69.40;;;;;;5024833;28;20299;-76
2021/09/21 03:20:49;;;;;;;11.73;8.68;;;11.90;69.30;;;;;;5025131;28;20264;-78
2021/09/21 03:23:16;;;;;;;9.02;8.23;;;11.90;69.30;;;;;;5019211;28;20255;-77
2021/09/21 03:25:43;;;;;;;8.90;8.00;;;11.90;69.30;;;;;;5013126;28;20701;-77
2021/09/21 03:28:10;;;;;;;9.32;8.32;;;11.90;69.30;;;;;;5013021;28;20671;-77
2021/09/21 03:30:37;;;;;;;7.82;7.03;;;11.90;69.30;;;;;;5013686;28;20294;-78
2021/09/21 03:33:04;;;;;;;13.52;7.82;;;11.90;69.30;;;;;;5014205;28;20717;-76
2021/09/21 03:35:32;;;;;;;11.73;8.60;;;12.00;68.10;;;;;;5020248;28;20274;-77
2021/09/21 03:37:59;;;;;;;8.40;7.55;;;12.00;67.00;;;;;;5025362;28;20243;-77
2021/09/21 03:40:26;;;;;;;8.70;7.80;;;12.00;66.60;;;;;;5019741;28;20287;-77
2021/09/21 03:42:53;;;;;;;8.85;7.95;;;11.90;67.20;;;;;;5016339;28;20207;-77
2021/09/21 03:45:21;;;;;;;10.05;8.43;;;11.90;66.90;;;;;;5012659;28;20281;-77
2021/09/21 03:47:48;;;;;;;8.32;7.63;;;11.90;66.80;;;;;;5012420;28;20214;-77
2021/09/21 03:50:15;;;;;;;8.60;7.80;;;11.90;67.10;;;;;;5018325;28;20231;-77
2021/09/21 03:52:43;;;;;;;8.60;7.75;;;12.00;66.70;;;;;;5032199;28;20203;-77
2021/09/21 03:55:11;;;;;;;10.38;8.38;;;11.90;67.40;;;;;;5029961;28;20210;-77
2021/09/21 03:57:38;;;;;;;10.90;8.82;;;12.00;66.20;;;;;;5028058;28;20215;-75
2021/09/21 04:00:06;;;;;;;9.48;8.57;;;12.00;65.70;;;;;;5026820;28;20644;-76
2021/09/21 04:02:33;;;;;;;8.85;7.93;;;11.90;65.60;;;;;;5028837;28;20215;-77
2021/09/21 04:05:00;;;;;;;8.50;7.60;;;12.00;66.10;;;;;;4978011;23;1144660;-74
2021/09/21 04:07:27;;;;;;;8.52;7.65;;;12.00;66.20;;;;;;5014134;28;20453;-75
2021/09/21 04:09:55;;;;;;;9.43;7.95;;;12.00;65.70;;;;;;5015446;28;20297;-74
2021/09/21 04:12:22;;;;;;;9.18;8.00;;;12.10;65.60;;;;;;5015672;28;20574;-74
2021/09/21 04:14:49;;;;;;;9.45;7.60;;;12.10;65.70;;;;;;5020173;28;20261;-74
2021/09/21 04:17:16;;;;;;;8.77;7.88;;;12.10;65.70;;;;;;5019985;28;20251;-74
2021/09/21 04:19:43;;;;;;;10.93;8.65;;;12.10;65.80;;;;;;5017533;28;20238;-73
2021/09/21 04:22:10;;;;;;;8.60;7.80;;;12.10;65.90;;;;;;5018669;28;20239;-74
2021/09/21 04:24:37;;;;;;;9.30;8.10;;;12.10;66.00;;;;;;5017962;28;20318;-75
2021/09/21 04:27:07;;;;;;;8.75;7.88;;;12.10;65.60;;;;;;5016404;28;20295;-73
2021/09/21 04:29:34;;;;;;;9.13;8.15;;;12.10;65.30;;;;;;5015091;28;20633;-74
2021/09/21 04:32:02;;;;;;;9.18;7.60;;;12.10;65.00;;;;;;5015296;28;20289;-74
2021/09/21 04:34:30;;;;;;;8.85;7.95;;;12.10;64.70;;;;;;5015164;28;20268;-74
2021/09/21 04:36:58;;;;;;;9.93;8.00;;;12.10;64.20;;;;;;5014999;28;20199;-75
2021/09/21 04:39:25;;;;;;;8.85;7.95;;;12.20;64.20;;;;;;5022185;28;20220;-73
2021/09/21 04:41:52;;;;;;;8.40;7.60;;;12.20;64.70;;;;;;5020638;28;20571;-74
2021/09/21 04:44:20;;;;;;;8.20;7.40;;;12.20;63.80;;;;;;5015568;28;20241;-74
2021/09/21 04:46:47;;;;;;;8.43;7.63;;;12.20;63.80;;;;;;5014749;28;20291;-73
2021/09/21 04:49:14;;;;;;;13.35;8.90;;;12.20;63.90;;;;;;5013311;28;20622;-74
2021/09/21 04:51:42;;;;;;;9.50;8.20;;;12.20;63.80;;;;;;5015256;28;20229;-73
2021/09/21 04:54:09;;;;;;;8.70;7.80;;;12.10;64.30;;;;;;5015420;28;20753;-75
2021/09/21 04:56:36;;;;;;;8.75;7.90;;;12.20;64.60;;;;;;5015282;28;20286;-74
2021/09/21 04:59:02;;;;;;;9.15;8.35;;;12.10;64.50;;;;;;5014988;28;20257;-73
2021/09/21 05:01:31;;;;;;;9.73;8.73;;;12.20;64.60;;;;;;5015524;28;20219;-74
2021/09/21 05:03:58;;;;;;;9.50;8.55;;;12.20;63.90;;;;;;5015056;28;20261;-74
2021/09/21 05:06:25;;;;;;;8.77;7.88;;;12.20;63.90;;;;;;5014757;28;20237;-75
2021/09/21 05:08:52;;;;;;;8.70;7.80;;;12.30;63.40;;;;;;5013887;28;20628;-73
2021/09/21 05:11:19;;;;;;;9.85;8.85;;;12.20;63.40;;;;;;5014469;28;20295;-74
2021/09/21 05:13:46;;;;;;;9.93;8.93;;;12.20;63.70;;;;;;5014360;28;20309;-74
2021/09/21 05:16:13;;;;;;;9.65;8.65;;;12.20;63.20;;;;;;5014117;28;20291;-74
2021/09/21 05:18:41;;;;;;;9.85;8.85;;;12.20;63.40;;;;;;5012827;28;20732;-74
2021/09/21 05:21:08;;;;;;;9.90;8.90;;;12.20;63.60;;;;;;5015012;28;20206;-75
2021/09/21 05:23:36;;;;;;;12.38;9.38;;;12.30;64.00;;;;;;5016615;28;20251;-76
2021/09/21 05:26:03;;;;;;;11.00;9.57;;;12.30;63.70;;;;;;5015450;28;20312;-75
2021/09/21 05:28:30;;;;;;;9.60;8.45;;;12.30;63.80;;;;;;5015360;28;20673;-74
2021/09/21 05:30:57;;;;;;;12.40;8.70;;;12.30;63.90;;;;;;5014343;28;20649;-76
2021/09/21 05:33:26;;;;;;;11.82;8.98;;;12.30;63.40;;;;;;5015402;28;20298;-75
2021/09/21 05:35:54;;;;;;;10.60;8.18;;;12.30;63.70;;;;;;5026069;28;20267;-73
2021/09/21 05:38:21;;;;;;;9.68;8.77;;;12.30;63.70;;;;;;4997242;28;20626;-73
2021/09/21 05:40:48;;;;;;;9.63;8.43;;;12.40;64.30;;;;;;4995701;28;20239;-73
2021/09/21 05:43:15;;;;;;;9.90;8.93;;;12.40;64.70;;;;;;4995305;28;20232;-73
2021/09/21 05:45:42;;;;;;;10.63;9.63;;;12.30;64.70;;;;;;4998687;28;20227;-72
2021/09/21 05:48:09;;;;;;;9.40;8.50;;;12.30;65.60;;;;;;5011342;28;20249;-73
2021/09/21 05:50:36;;;;;;;9.95;8.88;;;12.40;64.70;;;;;;5014215;28;20301;-75
2021/09/21 05:53:04;;;;;;;9.65;8.73;;;12.30;64.40;;;;;;5018052;28;20280;-74
2021/09/21 05:55:31;;;;;;;10.55;9.52;;;12.50;64.90;;;;;;5012867;28;20262;-74
2021/09/21 05:57:58;;;;;;;9.77;8.77;;;12.50;63.50;;;;;;5015250;28;20263;-74
2021/09/21 06:00:25;;;;;;;11.45;10.10;;;12.50;63.00;;;;;;5013400;28;20307;-74
2021/09/21 06:02:52;;;;;;;12.13;9.13;;;12.60;62.40;;;;;;5005747;28;20590;-74
2021/09/21 06:05:19;;;;;;;10.38;9.38;;;12.60;62.00;;;;;;5004756;28;20232;-74
2021/09/21 06:07:48;;;;;;;9.57;8.68;;;12.60;62.20;;;;;;5013831;28;20204;-74
2021/09/21 06:10:17;;;;;;;8.50;7.68;;;12.80;61.70;;;;;;5014074;28;20299;-74
2021/09/21 06:12:44;;;;;;;10.25;9.00;;;12.80;61.80;;;;;;5005155;28;20228;-74
2021/09/21 06:15:12;;;;;;;9.40;8.43;;;12.90;61.30;;;;;;4998888;28;20775;-74
2021/09/21 06:17:39;;;;;;;12.30;8.27;;;12.90;61.30;;;;;;5013773;28;20215;-73
2021/09/21 06:20:09;;;;;;;8.90;8.10;;;12.90;61.30;;;;;;5018716;28;20203;-73
2021/09/21 06:22:36;;;;;;;10.10;9.10;;;12.80;61.20;;;;;;5020279;28;20211;-73
2021/09/21 06:25:03;;;;;;;9.70;8.80;;;12.70;61.10;;;;;;5013181;28;20245;-73
2021/09/21 06:27:32;;;;;;;11.13;8.95;;;12.80;61.20;;;;;;5015457;28;20207;-73
2021/09/21 06:29:59;;;;;;;13.40;9.40;;;12.80;59.50;;;;;;5013979;28;20628;-73
2021/09/21 06:32:26;;;;;;;8.90;8.07;;;12.80;60.10;;;;;;5031689;28;20215;-73
2021/09/21 06:34:53;;;;;;;10.07;9.07;;;12.90;60.00;;;;;;5014979;28;20230;-73
2021/09/21 06:37:20;;;;;;;9.35;8.45;;;13.00;59.50;;;;;;5015495;28;20204;-72
2021/09/21 06:39:47;;;;;;;10.10;9.00;;;13.10;58.50;;;;;;5018066;28;20500;-72
2021/09/21 06:42:14;;;;;;;9.70;8.70;;;13.10;57.90;;;;;;5018941;28;20291;-74
2021/09/21 06:44:42;;;;;;;11.20;9.07;;;13.20;57.90;;;;;;5016463;28;20275;-74
2021/09/21 06:47:10;;;;;;;10.50;9.50;;;13.40;57.90;;;;;;5010612;28;20227;-74
2021/09/21 06:49:36;;;;;;;9.95;9.00;;;13.60;56.90;;;;;;5010406;28;20292;-73
2021/09/21 06:52:04;;;;;;;9.43;8.52;;;13.60;56.00;;;;;;5012378;28;20622;-74
2021/09/21 06:54:31;;;;;;;10.88;9.77;;;13.50;56.50;;;;;;5013419;28;20669;-73
2021/09/21 06:56:57;;;;;;;9.65;8.50;;;13.50;56.70;;;;;;5013845;28;20295;-74
2021/09/21 06:59:24;;;;;;;12.18;9.15;;;13.40;57.20;;;;;;5012939;28;20204;-73
2021/09/21 07:01:53;;;;;;;10.82;9.18;;;13.50;56.80;;;;;;5011578;28;20626;-72
2021/09/21 07:04:20;;;;;;;11.05;9.32;;;13.40;57.30;;;;;;5011036;28;20608;-74
2021/09/21 07:06:47;;;;;;;13.20;9.27;;;13.30;57.50;;;;;;5011662;28;20666;-74
2021/09/21 07:09:14;;;;;;;10.38;8.98;;;13.40;57.20;;;;;;5011566;28;20295;-73
2021/09/21 07:11:41;;;;;;;10.45;9.38;;;13.30;57.40;;;;;;5009500;28;20680;-73
2021/09/21 07:14:08;;;;;;;9.95;8.95;;;13.30;56.80;;;;;;5011652;28;20227;-73
2021/09/21 07:16:35;;;;;;;16.08;8.95;;;13.30;57.70;;;;;;5011728;28;20213;-73
2021/09/21 07:19:03;;;;;;;10.30;9.25;;;13.40;57.30;;;;;;5011369;28;20291;-73
2021/09/21 07:21:30;;;;;;;9.90;8.90;;;13.60;56.60;;;;;;5011751;28;20307;-73
2021/09/21 07:23:57;;;;;;;11.40;9.50;;;13.60;57.00;;;;;;5012117;28;20314;-73
2021/09/21 07:26:24;;;;;;;13.10;9.05;;;13.70;56.10;;;;;;5007089;28;20235;-73
2021/09/21 07:28:51;;;;;;;9.13;8.18;;;13.80;56.60;;;;;;5018404;28;20200;-72
2021/09/21 07:31:18;;;;;;;10.60;9.05;;;13.90;56.50;;;;;;5006542;28;20207;-73
2021/09/21 07:33:47;;;;;;;12.20;9.00;;;14.00;55.40;;;;;;5009596;28;20232;-74
2021/09/21 07:36:15;;;;;;;9.90;9.00;;;13.90;56.20;;;;;;5008608;28;20572;-72
2021/09/21 07:38:42;;;;;;;14.80;8.90;;;14.10;55.90;;;;;;5003165;28;20311;-75
2021/09/21 07:41:10;;;;;;;11.32;9.20;;;14.30;54.40;;;;;;5002440;28;20208;-75
2021/09/21 07:43:36;;;;;;;12.68;9.70;;;14.50;53.50;;;;;;5015520;28;20230;-74
2021/09/21 07:46:03;;;;;;;13.32;10.13;;;14.40;53.30;;;;;;5015201;28;20558;-74
2021/09/21 07:48:30;;;;;;;10.63;9.52;;;14.40;53.30;;;;;;5013751;28;20225;-73
2021/09/21 07:50:57;;;;;;;10.45;9.45;;;14.30;53.30;;;;;;5013176;28;20243;-74
2021/09/21 07:53:25;;;;;;;10.25;9.15;;;14.20;54.40;;;;;;5014041;28;20645;-75
2021/09/21 07:55:52;;;;;;;13.85;8.88;;;14.20;54.90;;;;;;5014583;28;20192;-75
2021/09/21 07:58:19;;;;;;;11.98;9.07;;;14.50;53.40;;;;;;5015598;28;20200;-75
2021/09/21 08:00:51;;;;;;;11.93;9.30;;;14.50;53.40;;;;;;5015730;28;20254;-75
2021/09/21 08:03:18;;;;;;;10.40;8.60;;;14.50;53.70;;;;;;5018565;28;20290;-75
2021/09/21 08:05:45;;;;;;;10.43;9.32;;;14.60;53.50;;;;;;5017869;28;20247;-75
2021/09/21 08:08:12;;;;;;;14.27;9.63;;;14.70;52.30;;;;;;5017880;28;20223;-75
2021/09/21 08:10:40;;;;;;;11.57;8.15;;;14.60;53.10;;;;;;5017156;28;20280;-75
2021/09/21 08:13:07;;;;;;;11.07;9.70;;;14.80;52.70;;;;;;5017003;28;20214;-75
2021/09/21 08:15:34;;;;;;;11.82;8.50;;;14.70;52.50;;;;;;5017338;28;20509;-74
2021/09/21 08:18:02;;;;;;;9.87;8.97;;;14.90;51.10;;;;;;5015091;28;20295;-72
2021/09/21 08:20:29;;;;;;;9.47;8.57;;;14.90;50.60;;;;;;5017221;28;20989;-74
2021/09/21 08:22:57;;;;;;;14.00;9.93;;;14.90;51.10;;;;;;5019910;28;20451;-73
2021/09/21 08:25:24;;;;;;;9.93;9.02;;;15.20;48.50;;;;;;5031486;28;20220;-75
2021/09/21 08:27:52;;;;;;;11.50;8.82;;;14.90;48.40;;;;;;5033346;28;20235;-74
2021/09/21 08:30:19;;;;;;;9.37;8.37;;;14.90;49.60;;;;;;5038800;28;20494;-73
2021/09/21 08:32:48;;;;;;;8.87;8.00;;;15.20;48.50;;;;;;5038543;28;20434;-72
2021/09/21 08:35:15;;;;;;;9.00;8.10;;;15.20;47.40;;;;;;5036296;28;20506;-74
2021/09/21 08:37:42;;;;;;;9.23;8.27;;;15.60;47.40;;;;;;5021713;28;20453;-74
2021/09/21 08:40:12;;;;;;;9.30;8.40;;;15.80;47.00;;;;;;5017338;28;20502;-72
2021/09/21 08:42:39;;;;;;;9.87;8.50;;;15.90;46.10;;;;;;5018701;28;20469;-73
2021/09/21 08:45:09;;;;;;;9.43;8.00;;;16.20;45.30;;;;;;5017640;28;20561;-72
2021/09/21 08:47:37;;;;;;;8.07;7.37;;;16.40;45.50;;;;;;5017045;28;20529;-72
2021/09/21 08:50:04;;;;;;;8.40;7.30;;;16.00;45.10;;;;;;5017256;28;20461;-73
2021/09/21 08:52:31;;;;;;;8.93;8.03;;;15.90;45.00;;;;;;5016459;28;20439;-73
2021/09/21 08:54:58;;;;;;;8.37;7.53;;;16.20;45.00;;;;;;5016238;28;20968;-74
2021/09/21 08:57:26;;;;;;;8.00;7.30;;;16.40;43.70;;;;;;5017370;28;20489;-74
2021/09/21 08:59:55;;;;;;;8.53;7.70;;;16.30;42.90;;;;;;5015669;28;20480;-73
2021/09/21 09:02:23;;;;;;;7.70;7.07;;;16.40;42.50;;;;;;5016147;28;20468;-74
2021/09/21 09:05:02;;;;;;;7.47;6.77;;;16.40;40.30;;;;;;5016830;28;21072;-72
2021/09/21 09:07:29;;;;;;;7.70;7.07;;;16.50;38.90;;;;;;5017857;28;20488;-73
2021/09/21 09:10:02;;;;;;;7.63;6.90;;;16.50;36.80;;;;;;5014038;28;20456;-72
2021/09/21 09:12:31;;;;;;;6.97;6.37;;;15.90;39.30;;;;;;5016121;28;20470;-72
2021/09/21 09:14:59;;;;;;;8.00;6.90;;;15.80;39.90;;;;;;5015624;28;20559;-74
2021/09/21 09:17:27;;;;;;;7.37;6.77;;;16.00;38.80;;;;;;5007088;28;20428;-74
2021/09/21 09:19:54;;;;;;;7.83;7.13;;;15.90;38.70;;;;;;5017352;28;21112;-73
2021/09/21 09:22:25;;;;;;;7.50;6.80;;;15.60;39.70;;;;;;5026624;28;20980;-74
2021/09/21 09:24:55;;;;;;;7.50;6.77;;;15.80;39.90;;;;;;5016039;28;20535;-75
2021/09/21 09:27:35;;;;;;;7.00;6.40;;;16.20;39.80;;;;;;5015960;28;20470;-76
2021/09/21 09:30:06;;;;;;;7.00;5.90;;;16.30;38.80;;;;;;5016123;28;20861;-75
2021/09/21 09:32:44;;;;;;;6.93;6.27;;;16.40;37.50;;;;;;5015434;28;20527;-74
2021/09/21 09:35:12;;;;;;;6.90;6.27;;;16.20;36.40;;;;;;5015437;28;20488;-74
2021/09/21 09:37:40;;;;;;;7.47;6.37;;;16.20;37.90;;;;;;5014728;28;20433;-74
2021/09/21 09:40:11;;;;;;;6.67;5.93;;;16.40;35.40;;;;;;5015255;28;20433;-75
2021/09/21 09:42:41;;;;;;;7.13;5.63;;;16.20;35.20;;;;;;5014072;28;20433;-73
2021/09/21 09:45:09;;;;;;;6.93;6.33;;;15.90;37.60;;;;;;5014371;28;20476;-74
2021/09/21 09:47:47;;;;;;;6.97;6.27;;;16.10;36.00;;;;;;5013443;28;20489;-75
2021/09/21 09:50:15;;;;;;;6.97;6.10;;;15.90;35.80;;;;;;5015600;28;20517;-73
2021/09/21 09:52:42;;;;;;;7.43;6.70;;;15.90;36.40;;;;;;5013469;28;20438;-74
2021/09/21 09:55:13;;;;;;;6.40;5.80;;;16.00;37.10;;;;;;5013939;28;20508;-73
2021/09/21 09:57:42;;;;;;;6.20;5.60;;;16.30;36.20;;;;;;5016766;28;20510;-74
2021/09/21 10:00:09;;;;;;;11.77;6.27;;;16.50;35.60;;;;;;5013161;28;20452;-74
2021/09/21 10:02:37;;;;;;;9.13;5.57;;;16.50;35.50;;;;;;5013189;28;20556;-74
2021/09/21 10:05:06;;;;;;;5.83;5.30;;;16.60;35.60;;;;;;5012510;28;20509;-75
2021/09/21 10:07:33;;;;;;;6.37;5.77;;;16.70;34.90;;;;;;5013165;28;20881;-76
2021/09/21 10:10:00;;;;;;;6.50;5.80;;;16.70;34.00;;;;;;5013765;28;20434;-73
2021/09/21 10:12:30;;;;;;;5.70;5.20;;;16.40;33.60;;;;;;5014373;28;20519;-73
2021/09/21 10:15:03;;;;;;;6.43;5.93;;;16.00;35.10;;;;;;5018249;28;20541;-74
2021/09/21 10:17:33;;;;;;;6.03;5.50;;;16.40;35.40;;;;;;5027980;28;20521;-73
2021/09/21 10:20:00;;;;;;;12.83;6.27;;;16.60;34.10;;;;;;5013733;28;20464;-74
2021/09/21 10:22:31;;;;;;;5.60;5.10;;;16.70;34.60;;;;;;5013010;28;20485;-74
2021/09/21 10:25:04;;;;;;;6.80;6.20;;;16.60;35.10;;;;;;5013774;28;20571;-75
2021/09/21 10:27:35;;;;;;;6.87;6.27;;;16.20;35.20;;;;;;5014582;28;20591;-74
2021/09/21 10:30:04;;;;;;;9.33;5.97;;;16.50;35.50;;;;;;5014223;28;20549;-74
2021/09/21 10:32:31;;;;;;;5.40;4.90;;;16.80;34.30;;;;;;5013711;28;20462;-74
2021/09/21 10:35:09;;;;;;;6.77;6.17;;;17.10;33.30;;;;;;5013899;28;20514;-75
2021/09/21 10:37:38;;;;;;;6.50;5.90;;;17.20;33.80;;;;;;5015406;28;20946;-74
2021/09/21 10:40:06;;;;;;;5.60;5.10;;;17.30;32.90;;;;;;5018164;28;20530;-76
2021/09/21 10:42:34;;;;;;;6.47;5.97;;;17.30;32.50;;;;;;5034728;28;20469;-74
2021/09/21 10:45:03;;;;;;;6.10;5.50;;;17.00;33.70;;;;;;5036529;28;20474;-74
2021/09/21 10:47:37;;;;;;;5.90;5.40;;;17.10;34.30;;;;;;5036168;28;20447;-74
2021/09/21 10:50:15;;;;;;;6.07;5.40;;;16.80;34.90;;;;;;5032088;28;20499;-74
2021/09/21 10:52:43;;;;;;;7.10;6.40;;;16.70;35.50;;;;;;5031890;28;20467;-74
2021/09/21 10:55:13;;;;;;;7.40;6.10;;;16.50;35.50;;;;;;5024949;28;20508;-74
2021/09/21 10:57:42;;;;;;;6.33;5.73;;;16.70;35.70;;;;;;5015796;28;20456;-74
2021/09/21 11:00:12;;;;;;;6.60;6.00;;;16.90;34.80;;;;;;5012997;28;20489;-74
2021/09/21 11:02:40;;;;;;;7.40;6.10;;;17.30;34.40;;;;;;5012704;28;20487;-74
2021/09/21 11:05:10;;;;;;;7.60;6.47;;;17.70;33.30;;;;;;5012453;28;20461;-74
2021/09/21 11:07:37;;;;;;;6.27;5.57;;;17.80;33.60;;;;;;5012733;28;20510;-75
2021/09/21 11:10:07;;;;;;;6.50;5.90;;;17.90;32.60;;;;;;5012952;28;20425;-75
2021/09/21 11:12:34;;;;;;;6.50;5.90;;;18.10;32.30;;;;;;5019535;28;20432;-75
2021/09/21 11:15:09;;;;;;;5.93;5.40;;;17.80;33.30;;;;;;5018927;28;20445;-75
2021/09/21 11:17:37;;;;;;;6.70;6.00;;;18.00;33.20;;;;;;5012961;28;20475;-75
2021/09/21 11:20:05;;;;;;;6.40;5.80;;;18.20;32.90;;;;;;5031735;28;20451;-75
2021/09/21 11:22:32;;;;;;;5.80;5.30;;;18.00;32.00;;;;;;5030206;28;20505;-74
2021/09/21 11:25:05;;;;;;;6.80;6.27;;;18.10;32.10;;;;;;5015061;28;20481;-75
2021/09/21 11:27:34;;;;;;;8.67;7.17;;;17.50;33.30;;;;;;5013177;28;20585;-75
2021/09/21 11:30:04;;;;;;;6.20;5.50;;;17.20;35.00;;;;;;5012629;28;20455;-75
2021/09/21 11:32:31;;;;;;;6.00;5.40;;;17.30;33.90;;;;;;5012344;28;20462;-74
2021/09/21 11:34:59;;;;;;;6.50;5.27;;;17.30;33.70;;;;;;5012148;28;20569;-75
2021/09/21 11:37:27;;;;;;;7.50;6.77;;;17.10;34.30;;;;;;5011523;28;20483;-74
2021/09/21 11:39:55;;;;;;;6.57;5.97;;;16.90;35.00;;;;;;5011490;28;20525;-74
2021/09/21 11:42:23;;;;;;;7.00;6.30;;;16.70;34.50;;;;;;5011877;28;20464;-75
2021/09/21 11:44:57;;;;;;;6.53;5.93;;;16.70;35.70;;;;;;5012261;28;20486;-74
2021/09/21 11:47:24;;;;;;;7.10;6.50;;;16.80;35.60;;;;;;4992854;28;20543;-76
2021/09/21 11:49:54;;;;;;;6.83;6.10;;;17.00;34.30;;;;;;4993062;28;20484;-75
2021/09/21 11:52:24;;;;;;;6.60;6.03;;;17.60;36.60;;;;;;5011477;28;20542;-74
2021/09/21 11:54:51;;;;;;;6.53;6.00;;;17.90;32.80;;;;;;5011040;28;20495;-75
2021/09/21 11:57:18;;;;;;;7.03;6.33;;;17.50;33.10;;;;;;5011950;28;20468;-75
2021/09/21 11:59:45;;;;;;;7.63;6.50;;;17.50;33.80;;;;;;5015103;28;20540;-75
2021/09/21 12:02:20;;;;;;;7.53;6.80;;;17.60;33.40;;;;;;5020629;28;20466;-75
2021/09/21 12:04:47;;;;;;;6.40;5.83;;;17.90;32.80;;;;;;5028110;28;20474;-73
2021/09/21 12:07:15;;;;;;;6.83;6.27;;;18.00;32.20;;;;;;5048049;23;20546;-78
2021/09/21 12:09:44;;;;;;;6.37;5.77;;;18.20;32.50;;;;;;5001742;28;20539;-78
2021/09/21 12:12:21;;;;;;;9.97;5.90;;;18.70;31.70;;;;;;5003494;28;20499;-80
2021/09/21 12:14:57;;;;;;;6.03;5.53;;;19.00;30.80;;;;;;5001538;28;20943;-78
2021/09/21 12:17:25;;;;;;;6.63;6.03;;;18.80;30.80;;;;;;4999182;28;20835;-79
2021/09/21 12:19:58;;;;;;;6.90;6.30;;;18.50;32.50;;;;;;4993099;28;20495;-80
2021/09/21 12:22:26;;;;;;;6.27;5.77;;;18.80;32.40;;;;;;4990184;28;20893;-80
2021/09/21 12:24:53;;;;;;;6.37;5.87;;;19.00;31.00;;;;;;4992195;28;20494;-79
2021/09/21 12:27:24;;;;;;;6.80;6.10;;;19.20;30.20;;;;;;5003775;28;20473;-80
2021/09/21 12:29:51;;;;;;;7.80;6.50;;;19.00;30.90;;;;;;5010047;28;20469;-81
2021/09/21 12:32:18;;;;;;;6.83;6.20;;;18.20;32.50;;;;;;5004846;28;20530;-81
2021/09/21 12:34:46;;;;;;;6.20;5.60;;;17.90;32.50;;;;;;4999389;28;20471;-80
2021/09/21 12:37:17;;;;;;;6.27;5.67;;;17.80;33.00;;;;;;5015415;28;20438;-82
2021/09/21 12:39:44;;;;;;;6.93;6.33;;;17.70;33.40;;;;;;4991551;28;20456;-80
2021/09/21 12:42:12;;;;;;;6.80;6.10;;;17.60;33.10;;;;;;5001698;28;20509;-81
2021/09/21 12:44:40;;;;;;;7.40;6.57;;;17.50;33.10;;;;;;5001734;28;20490;-80
2021/09/21 12:47:07;;;;;;;6.67;6.07;;;17.70;33.40;;;;;;5001072;28;20458;-78
2021/09/21 12:49:34;;;;;;;6.50;5.83;;;18.20;32.30;;;;;;4998002;28;20554;-78
2021/09/21 12:52:05;;;;;;;6.67;6.13;;;18.20;32.00;;;;;;5002785;28;20455;-74
2021/09/21 12:54:32;;;;;;;6.50;5.93;;;18.80;31.40;;;;;;5015973;28;20426;-75
2021/09/21 12:57:00;;;;;;;7.00;6.40;;;19.20;30.40;;;;;;5008161;28;20472;-79
2021/09/21 12:59:28;;;;;;;7.53;6.20;;;19.10;30.20;;;;;;5017689;28;20426;-74